ヘイダル・アリエフ国際空港(バクー)の過去48時間の天気

ヘイダル・アリエフ国際空港(バクー) (Baku / Bine Airport)

現在時刻: 2/6 01:12 +04 (2/5 21:12 UTC) 以下の時間は現地時間です。

過去48時間のMETAR気象情報
時間 風向 風速(m/s) 視程 気温(℃) 湿度(%) 気圧(hPa) 天気現象
6 01:00 北北西 5 10km以上 5 81 1017
6 00:30 北西 5 10km以上 5 81 1017
6 00:00 北西 5 10km以上 5 87 1017
5 23:30 北西 5 10km以上 5 87 1017
UBBB 052100Z 33010KT 9999 SCT014 BKN025 05/02 Q1017 NOSIG
UBBB 052030Z 32010KT 9999 BKN013 BKN025 05/02 Q1017 NOSIG
UBBB 052000Z 32010KT 9999 BKN012 BKN026 05/03 Q1017 NOSIG
UBBB 051930Z 31010KT 9999 BKN011 BKN026 05/03 Q1017 NOSIG